Time;durP1;ratioP1;P1;durP2;ratioP2;P2;SDS_P1;SDS_P2;PMS_P1;PMS_P2;Temp;Humidity;BMP_temperature;BMP_pressure;BME280_temperature;BME280_humidity;BME280_pressure;Samples;Min_cycle;Max_cycle;Signal;HPM_P1;HPM_P2
2021/03/24 00:01:14;234850.00;0.78;405.89;0.00;0.00;0.62;;;;;9.20;1.00;;;;;;2261782;61;2032;-85
2021/03/24 00:03:40;324047.00;1.08;559.25;0.00;0.00;0.62;;;;;9.20;1.00;;;;;;2257568;61;1237;-85
2021/03/24 00:06:07;334823.00;1.12;577.78;0.00;0.00;0.62;;;;;9.60;1.00;;;;;;2260922;61;1114;-85
2021/03/24 00:08:33;360140.00;1.20;621.29;0.00;0.00;0.62;;;;;10.10;1.00;;;;;;2253397;61;1251;-85
2021/03/24 00:11:00;170269.00;0.57;294.73;0.00;0.00;0.62;;;;;10.00;1.00;;;;;;2262125;61;1384;-85
2021/03/24 00:13:26;264712.00;0.88;457.25;0.00;0.00;0.62;;;;;9.90;1.00;;;;;;2267087;61;1279;-85
2021/03/24 00:15:54;295936.00;0.99;510.93;0.00;0.00;0.62;;;;;10.10;1.00;;;;;;2262185;61;1108;-85
2021/03/24 00:18:20;242308.00;0.81;418.72;12437.00;0.04;22.17;;;;;10.10;1.00;;;;;;2261911;61;1180;-85
2021/03/24 00:20:47;161902.00;0.54;280.32;0.00;0.00;0.62;;;;;9.90;1.00;;;;;;2261136;61;2034;-85
2021/03/24 00:23:14;315785.00;1.05;545.05;0.00;0.00;0.62;;;;;9.20;1.00;;;;;;2261611;61;1559;-85
2021/03/24 00:25:40;325644.00;1.09;562.00;41297.00;0.14;72.13;;;;;9.00;1.00;;;;;;2262499;61;1330;-85
2021/03/24 00:28:09;170968.00;0.57;295.93;0.00;0.00;0.62;;;;;8.60;1.00;;;;;;2262965;61;1196;-85
2021/03/24 00:30:38;184944.00;0.62;320.00;0.00;0.00;0.62;;;;;9.00;1.00;;;;;;2262445;61;1165;-85
2021/03/24 00:33:06;182823.00;0.61;316.35;0.00;0.00;0.62;;;;;9.20;1.00;;;;;;2264474;61;1728;-86
2021/03/24 00:35:33;368073.00;1.23;634.92;9052.00;0.03;16.31;;;;;9.80;1.00;;;;;;2264691;61;949;-85
2021/03/24 00:37:59;179836.00;0.60;311.21;0.00;0.00;0.62;;;;;9.80;1.00;;;;;;2266730;61;1108;-86
2021/03/24 00:40:29;333348.00;1.11;575.24;0.00;0.00;0.62;;;;;9.60;1.00;;;;;;2257104;61;2016;-86
2021/03/24 00:42:56;435086.00;1.45;750.13;9027.00;0.03;16.26;;;;;9.70;1.00;;;;;;2261276;61;1448;-85
2021/03/24 00:45:23;256742.00;0.86;443.55;0.00;0.00;0.62;;;;;9.80;1.00;;;;;;2260771;61;1097;-86
2021/03/24 00:47:50;352461.00;1.17;608.09;0.00;0.00;0.62;;;;;9.60;1.00;;;;;;2260963;61;1145;-85
2021/03/24 00:50:20;395947.00;1.32;682.84;15656.00;0.05;27.75;;;;;9.60;1.00;;;;;;2260028;61;1255;-85
2021/03/24 00:52:47;409139.00;1.36;705.52;0.00;0.00;0.62;;;;;9.10;1.00;;;;;;2260209;61;1409;-85
2021/03/24 00:55:15;260207.00;0.87;449.50;0.00;0.00;0.62;;;;;8.80;1.00;;;;;;2260676;61;1240;-85
2021/03/24 00:57:41;343065.00;1.14;591.94;0.00;0.00;0.62;;;;;9.00;1.00;;;;;;2260527;61;1248;-85
2021/03/24 01:00:10;319939.00;1.07;552.19;34861.00;0.12;61.00;;;;;8.90;1.00;;;;;;2257104;61;2034;-85
2021/03/24 01:02:37;185970.00;0.62;321.77;0.00;0.00;0.62;;;;;9.10;1.00;;;;;;2261906;61;1381;-85
2021/03/24 01:05:05;228038.00;0.76;394.17;0.00;0.00;0.62;;;;;9.50;1.00;;;;;;2261075;61;1178;-85
2021/03/24 01:07:33;208387.00;0.69;360.36;0.00;0.00;0.62;;;;;10.00;1.00;;;;;;2260684;61;1136;-86
2021/03/24 01:09:59;133969.00;0.45;232.17;0.00;0.00;0.62;;;;;10.40;1.00;;;;;;2260181;61;1164;-85
2021/03/24 01:12:26;305868.00;1.02;528.01;0.00;0.00;0.62;;;;;10.20;1.00;;;;;;2260569;61;1360;-83
2021/03/24 01:14:52;243506.00;0.81;420.78;26919.00;0.09;47.25;;;;;10.10;1.00;;;;;;2260858;61;1137;-86
2021/03/24 01:17:19;188554.00;0.63;326.22;0.00;0.00;0.62;;;;;9.80;1.00;;;;;;2261575;61;1163;-84
2021/03/24 01:19:46;200846.00;0.67;347.38;0.00;0.00;0.62;;;;;10.00;1.00;;;;;;2257489;61;2018;-84
2021/03/24 01:22:12;188223.00;0.63;325.65;0.00;0.00;0.62;;;;;9.80;1.00;;;;;;2261679;61;1396;-84
2021/03/24 01:24:39;299532.00;1.00;517.12;0.00;0.00;0.62;;;;;9.80;1.00;;;;;;2259959;61;1161;-84
2021/03/24 01:27:07;152939.00;0.51;264.87;0.00;0.00;0.62;;;;;9.20;1.00;;;;;;2260259;61;1191;-84
2021/03/24 01:29:33;138997.00;0.46;240.84;0.00;0.00;0.62;;;;;8.70;1.00;;;;;;2259821;61;1220;-84
2021/03/24 01:32:00;279739.00;0.93;483.09;403.00;0.00;1.32;;;;;8.20;1.00;;;;;;2253228;61;1311;-84
2021/03/24 01:34:26;403037.00;1.34;695.03;0.00;0.00;0.62;;;;;8.40;1.00;;;;;;2260309;61;1183;-85
2021/03/24 01:36:52;225822.00;0.75;390.36;0.00;0.00;0.62;;;;;7.60;1.00;;;;;;2260350;61;1067;-85
2021/03/24 01:39:19;516780.00;1.72;890.72;17103.00;0.06;30.25;;;;;8.00;1.00;;;;;;2260200;61;2004;-85
2021/03/24 01:41:46;249756.00;0.83;431.53;0.00;0.00;0.62;;;;;8.30;1.00;;;;;;2260229;61;1467;-85
2021/03/24 01:44:12;169178.00;0.56;292.85;0.00;0.00;0.62;;;;;8.50;1.00;;;;;;2260087;61;1162;-84
2021/03/24 01:46:42;190980.00;0.64;330.40;0.00;0.00;0.62;;;;;8.80;1.00;;;;;;2260586;61;1160;-85
2021/03/24 01:49:24;369766.00;1.23;637.83;0.00;0.00;0.62;;;;;9.10;1.00;;;;;;2260270;61;1227;-84
2021/03/24 01:51:55;181590.00;0.61;314.23;0.00;0.00;0.62;;;;;9.00;1.00;;;;;;2260500;61;1332;-84
2021/03/24 01:54:26;152604.00;0.51;264.30;0.00;0.00;0.62;;;;;9.40;1.00;;;;;;2261042;61;1185;-84
2021/03/24 01:57:00;295109.00;0.98;509.51;0.00;0.00;0.62;;;;;9.70;1.00;;;;;;2268160;61;1658;-84
2021/03/24 01:59:26;339773.00;1.13;586.28;17842.00;0.06;31.53;;;;;10.00;1.00;;;;;;2268302;61;2000;-86
2021/03/24 02:01:54;357212.00;1.19;616.26;0.00;0.00;0.62;;;;;10.10;1.00;;;;;;2267219;61;1407;-84
2021/03/24 02:04:20;239544.00;0.80;413.97;4736.00;0.02;8.83;;;;;9.90;1.00;;;;;;2268301;61;1197;-84
2021/03/24 02:06:54;353193.00;1.18;609.35;0.00;0.00;0.62;;;;;8.90;1.00;;;;;;2267919;61;1232;-86
2021/03/24 02:09:34;420504.00;1.40;725.06;0.00;0.00;0.62;;;;;8.00;1.00;;;;;;2262011;61;1704;-85
2021/03/24 02:12:08;179953.00;0.60;311.41;0.00;0.00;0.62;;;;;7.30;1.00;;;;;;2261902;61;1277;-85
2021/03/24 02:14:42;337668.00;1.13;582.67;0.00;0.00;0.62;;;;;6.90;1.00;;;;;;2264049;61;1183;-84
2021/03/24 02:17:09;248072.00;0.83;428.64;0.00;0.00;0.62;;;;;7.00;1.00;;;;;;2267797;61;1042;-85
2021/03/24 02:19:50;294318.00;0.98;508.15;0.00;0.00;0.62;;;;;7.20;1.00;;;;;;2267634;61;2005;-84
2021/03/24 02:22:22;215587.00;0.72;372.75;0.00;0.00;0.62;;;;;7.10;1.00;;;;;;2267758;61;1449;-85
2021/03/24 02:24:56;331285.00;1.10;571.69;0.00;0.00;0.62;;;;;7.60;1.00;;;;;;2265427;61;1193;-85
2021/03/24 02:27:29;311241.00;1.04;537.24;0.00;0.00;0.62;;;;;8.30;1.00;;;;;;2261815;61;1179;-86
2021/03/24 02:29:59;314224.00;1.05;542.37;0.00;0.00;0.62;;;;;9.00;1.00;;;;;;2262361;61;1219;-83
2021/03/24 02:32:30;215307.00;0.72;372.27;0.00;0.00;0.62;;;;;9.50;1.00;;;;;;2262803;61;1391;-84
2021/03/24 02:35:01;309781.00;1.03;534.73;0.00;0.00;0.62;;;;;9.80;1.00;;;;;;2262267;61;1177;-86
2021/03/24 02:37:30;205823.00;0.69;355.95;0.00;0.00;0.62;;;;;9.80;1.00;;;;;;2261633;61;1081;-85
2021/03/24 02:39:59;223616.00;0.75;386.57;0.00;0.00;0.62;;;;;9.50;1.00;;;;;;2261476;61;1951;-85
2021/03/24 02:42:27;186037.00;0.62;321.89;0.00;0.00;0.62;;;;;9.60;1.00;;;;;;2260748;61;1396;-84
2021/03/24 02:44:55;154175.00;0.51;267.00;0.00;0.00;0.62;;;;;10.00;1.00;;;;;;2264530;61;1141;-84
2021/03/24 02:47:22;165170.00;0.55;285.95;0.00;0.00;0.62;;;;;10.60;1.00;;;;;;2264144;61;1066;-84
2021/03/24 02:49:49;116547.00;0.39;202.13;0.00;0.00;0.62;;;;;11.00;1.00;;;;;;2261806;61;1250;-84
2021/03/24 02:52:16;70577.00;0.24;122.76;0.00;0.00;0.62;;;;;11.20;1.00;;;;;;2261087;61;1244;-84
2021/03/24 02:54:45;234186.00;0.78;404.75;0.00;0.00;0.62;;;;;11.40;1.00;;;;;;2261784;61;1157;-84
2021/03/24 02:57:12;102472.00;0.34;177.84;0.00;0.00;0.62;;;;;11.40;1.00;;;;;;2263164;61;1189;-85
2021/03/24 02:59:39;150665.00;0.50;260.95;0.00;0.00;0.62;;;;;11.30;1.00;;;;;;2268019;61;1947;-84
2021/03/24 03:02:14;322644.00;1.08;556.84;0.00;0.00;0.62;;;;;10.70;1.00;;;;;;2268635;61;1351;-84
2021/03/24 03:04:46;129115.00;0.43;223.80;0.00;0.00;0.62;;;;;10.20;1.00;;;;;;2268767;61;1204;-85
2021/03/24 03:07:17;286907.00;0.96;495.41;0.00;0.00;0.62;;;;;9.80;1.00;;;;;;2268516;61;1120;-84
2021/03/24 03:09:50;193714.00;0.65;335.10;0.00;0.00;0.62;;;;;9.50;1.00;;;;;;2268590;61;1214;-85
2021/03/24 03:12:25;213574.00;0.71;369.29;0.00;0.00;0.62;;;;;9.70;1.00;;;;;;2266081;61;1388;-83
2021/03/24 03:14:59;89865.00;0.30;156.07;0.00;0.00;0.62;;;;;9.00;1.00;;;;;;2262958;61;1759;-85
2021/03/24 03:17:33;241293.00;0.80;416.98;0.00;0.00;0.62;;;;;8.70;1.00;;;;;;2262303;61;1563;-84
2021/03/24 03:20:08;192675.00;0.64;333.31;0.00;0.00;0.62;;;;;9.00;1.00;;;;;;2262209;61;2010;-84
2021/03/24 03:22:38;140545.00;0.47;243.51;0.00;0.00;0.62;;;;;9.60;1.00;;;;;;2261758;61;1423;-84
2021/03/24 03:25:10;86453.00;0.29;150.18;0.00;0.00;0.62;;;;;10.10;1.00;;;;;;2261299;61;1555;-85
2021/03/24 03:27:38;182417.00;0.61;315.65;0.00;0.00;0.62;;;;;10.20;1.00;;;;;;2265196;61;1196;-85
2021/03/24 03:30:16;170334.00;0.57;294.84;0.00;0.00;0.62;;;;;10.60;1.00;;;;;;2264469;61;1154;-85
2021/03/24 03:32:45;120810.00;0.40;209.48;0.00;0.00;0.62;;;;;10.70;1.00;;;;;;2261495;61;1352;-85
2021/03/24 03:35:18;268045.00;0.89;462.98;0.00;0.00;0.62;;;;;10.50;1.00;;;;;;2257259;61;1243;-84
2021/03/24 03:37:48;409279.00;1.36;705.76;14199.00;0.05;25.22;;;;;10.00;1.00;;;;;;2261569;61;1272;-85
2021/03/24 03:40:19;131345.00;0.44;227.65;0.00;0.00;0.62;;;;;9.90;1.00;;;;;;2261323;61;1927;-84
2021/03/24 03:42:45;179787.00;0.60;311.12;0.00;0.00;0.62;;;;;9.20;1.00;;;;;;2261667;61;1269;-84
2021/03/24 03:45:14;272059.00;0.91;469.88;0.00;0.00;0.62;;;;;8.60;1.00;;;;;;2261693;61;1125;-84
2021/03/24 03:47:42;312602.00;1.04;539.58;0.00;0.00;0.62;;;;;8.30;1.00;;;;;;2261841;61;1180;-84
2021/03/24 03:50:14;241360.00;0.80;417.09;0.00;0.00;0.62;;;;;7.90;1.00;;;;;;2260915;61;1259;-83
2021/03/24 03:52:50;458836.00;1.53;790.98;32316.00;0.11;56.59;;;;;7.30;1.00;;;;;;2261173;61;1324;-85
2021/03/24 03:55:28;354811.00;1.18;612.13;0.00;0.00;0.62;;;;;7.00;1.00;;;;;;2260624;61;1517;-85
2021/03/24 03:57:56;290095.00;0.97;500.89;0.00;0.00;0.62;;;;;6.50;1.00;;;;;;2260619;61;1165;-85
2021/03/24 04:00:27;532885.00;1.78;918.46;0.00;0.00;0.62;;;;;5.70;1.00;;;;;;2256917;61;2032;-85
2021/03/24 04:02:59;354616.00;1.18;611.79;0.00;0.00;0.62;;;;;6.40;1.00;;;;;;2256542;61;1455;-85
2021/03/24 04:05:32;483641.00;1.61;833.66;0.00;0.00;0.62;;;;;7.10;1.00;;;;;;2260865;61;1272;-85
2021/03/24 04:08:04;551640.00;1.84;950.79;0.00;0.00;0.62;;;;;7.60;1.00;;;;;;2260402;61;1255;-85
2021/03/24 04:10:34;348690.00;1.16;601.61;0.00;0.00;0.62;;;;;7.10;1.00;;;;;;2264557;61;1153;-85
2021/03/24 04:13:03;499203.00;1.66;860.45;0.00;0.00;0.62;;;;;6.60;1.00;;;;;;2264111;61;1460;-84
2021/03/24 04:15:32;268269.00;0.89;463.37;55407.00;0.18;96.54;;;;;7.20;1.00;;;;;;2256519;61;1275;-85
2021/03/24 04:18:03;330078.00;1.10;569.62;0.00;0.00;0.62;;;;;7.80;1.00;;;;;;2260838;61;1295;-85
2021/03/24 04:20:34;226143.00;0.75;390.91;0.00;0.00;0.62;;;;;8.60;1.00;;;;;;2261103;61;2008;-85
2021/03/24 04:23:05;285100.00;0.95;492.31;0.00;0.00;0.62;;;;;9.00;1.00;;;;;;2256867;61;1330;-84
2021/03/24 04:25:39;311655.00;1.04;537.95;0.00;0.00;0.62;;;;;8.70;1.00;;;;;;2260896;61;1187;-85
2021/03/24 04:28:10;292661.00;0.98;505.30;22464.00;0.07;39.54;;;;;8.50;1.00;;;;;;2260789;61;1129;-85
2021/03/24 04:30:42;360999.00;1.20;622.77;23503.00;0.08;41.34;;;;;8.70;1.00;;;;;;2261155;61;1132;-85
2021/03/24 04:33:08;216249.00;0.72;373.89;0.00;0.00;0.62;;;;;8.90;1.00;;;;;;2260539;61;1490;-85
2021/03/24 04:35:38;161360.00;0.54;279.38;0.00;0.00;0.62;;;;;9.10;1.00;;;;;;2260991;61;1112;-85
2021/03/24 04:38:18;244452.00;0.81;422.41;0.00;0.00;0.62;;;;;9.10;1.00;;;;;;2260764;61;1121;-85
2021/03/24 04:40:50;336884.00;1.12;581.32;0.00;0.00;0.62;;;;;9.70;1.00;;;;;;2260323;61;1931;-85
2021/03/24 04:43:21;181649.00;0.61;314.33;0.00;0.00;0.62;;;;;10.30;1.00;;;;;;2260466;61;1431;-85
2021/03/24 04:45:56;159874.00;0.53;276.82;0.00;0.00;0.62;;;;;10.50;1.00;;;;;;2260670;61;1183;-85
2021/03/24 04:48:26;124276656.00;414.26;77761656.00;0.00;0.00;0.62;;;;;10.10;1.00;;;;;;2260926;61;1161;-84
2021/03/24 04:50:58;269351.00;0.90;465.23;0.00;0.00;0.62;;;;;9.50;1.00;;;;;;2261352;61;973;-85
2021/03/24 04:53:29;120240.00;0.40;208.50;0.00;0.00;0.62;;;;;9.40;1.00;;;;;;2260209;61;1544;-85
2021/03/24 04:55:59;176132.00;0.59;304.83;0.00;0.00;0.62;;;;;9.90;1.00;;;;;;2264318;61;1170;-85
2021/03/24 04:58:32;212894.00;0.71;368.12;0.00;0.00;0.62;;;;;10.50;1.00;;;;;;2260808;61;1071;-85
2021/03/24 05:01:06;135913.00;0.45;235.52;0.00;0.00;0.62;;;;;10.60;1.00;;;;;;2260241;61;1943;-85
2021/03/24 05:03:38;249234.00;0.83;430.63;0.00;0.00;0.62;;;;;10.30;1.00;;;;;;2260475;61;1217;-85
2021/03/24 05:06:12;174850.00;0.58;302.62;0.00;0.00;0.62;;;;;9.80;1.00;;;;;;2260009;61;1190;-85
2021/03/24 05:08:43;213782.00;0.71;369.64;0.00;0.00;0.62;;;;;10.20;1.00;;;;;;2260754;61;1109;-85
2021/03/24 05:11:17;416997.00;1.39;719.03;0.00;0.00;0.62;;;;;10.30;1.00;;;;;;2260516;61;1384;-85
2021/03/24 05:13:51;573635.00;1.91;988.72;0.00;0.00;0.62;;;;;10.60;1.00;;;;;;2260916;61;1259;-85
2021/03/24 05:16:24;180803.00;0.60;312.87;0.00;0.00;0.62;;;;;10.50;1.00;;;;;;2261197;61;1183;-85
2021/03/24 05:18:54;196590.00;0.66;340.05;0.00;0.00;0.62;;;;;10.60;1.00;;;;;;2260351;61;1339;-85
2021/03/24 05:21:44;182181.00;0.61;315.25;0.00;0.00;0.62;;;;;10.60;1.00;;;;;;2260597;61;2032;-85
2021/03/24 05:24:14;218200.00;0.73;377.25;0.00;0.00;0.62;;;;;10.50;1.00;;;;;;2260519;61;1165;-85
2021/03/24 05:26:46;309828.00;1.03;534.81;0.00;0.00;0.62;;;;;10.40;1.00;;;;;;2260641;61;1256;-85
2021/03/24 05:29:22;554418.00;1.85;955.58;0.00;0.00;0.62;;;;;10.20;1.00;;;;;;2260029;61;1249;-85
2021/03/24 05:31:55;269606.00;0.90;465.67;0.00;0.00;0.62;;;;;10.10;1.00;;;;;;2260183;61;1336;-85
2021/03/24 05:34:26;332526.00;1.11;573.83;0.00;0.00;0.62;;;;;9.90;1.00;;;;;;2260082;61;1216;-85
2021/03/24 05:36:54;211814.00;0.71;366.26;0.00;0.00;0.62;;;;;10.20;1.00;;;;;;2260244;61;1172;-85
2021/03/24 05:39:24;317421.00;1.06;547.87;0.00;0.00;0.62;;;;;10.30;1.00;;;;;;2259436;61;1670;-85
2021/03/24 05:41:59;218213.00;0.73;377.27;0.00;0.00;0.62;;;;;10.50;1.00;;;;;;2259743;61;1382;-85
2021/03/24 05:44:48;332994.00;1.11;574.63;0.00;0.00;0.62;;;;;10.70;1.00;;;;;;2259812;61;1195;-85
2021/03/24 05:47:49;157881.00;0.53;273.39;0.00;0.00;0.62;;;;;10.80;1.00;;;;;;2259555;61;1166;-85
2021/03/24 05:50:52;192096.00;0.64;332.32;0.00;0.00;0.62;;;;;11.20;1.00;;;;;;2259861;61;1142;-85
2021/03/24 05:53:45;305724.00;1.02;527.76;0.00;0.00;0.62;;;;;11.60;1.00;;;;;;2259720;61;1571;-85
2021/03/24 05:56:19;177009.00;0.59;306.34;0.00;0.00;0.62;;;;;11.50;1.00;;;;;;2259485;61;1434;-85
2021/03/24 05:58:58;406531.00;1.36;701.03;54165.00;0.18;94.39;;;;;11.30;1.00;;;;;;2259917;61;1171;-85
2021/03/24 06:01:32;84750.00;0.28;147.24;0.00;0.00;0.62;;;;;11.20;1.00;;;;;;2259896;61;1948;-85
2021/03/24 06:04:21;155463.00;0.52;269.22;0.00;0.00;0.62;;;;;11.00;1.00;;;;;;2260151;61;1137;-85
2021/03/24 06:07:25;188200.00;0.63;325.61;0.00;0.00;0.62;;;;;11.60;1.00;;;;;;2260167;61;1127;-85
2021/03/24 06:10:29;167402.00;0.56;289.79;0.00;0.00;0.62;;;;;12.00;1.00;;;;;;2260332;61;1146;-85
2021/03/24 06:13:39;151313.00;0.50;262.07;0.00;0.00;0.62;;;;;12.50;1.00;;;;;;2247068;61;1602;-85
2021/03/24 06:16:44;196860.00;0.66;340.52;0.00;0.00;0.62;;;;;13.20;1.00;;;;;;2247346;61;1157;-85
2021/03/24 06:19:32;495183.00;1.65;853.53;74597.00;0.25;129.70;;;;;13.70;1.00;;;;;;2246927;61;1176;-85
2021/03/24 06:22:16;288220.00;0.96;497.67;3424.00;0.01;6.55;;;;;13.10;1.00;;;;;;2247054;61;1400;-86
2021/03/24 06:24:54;325835.00;1.09;562.33;77267.00;0.26;134.32;;;;;13.70;1.00;;;;;;2241267;61;1099;-86
2021/03/24 06:27:40;416628.00;1.39;718.39;0.00;0.00;0.62;;;;;14.10;1.00;;;;;;2247244;61;1097;-85
2021/03/24 06:30:31;100403.00;0.33;174.27;0.00;0.00;0.62;;;;;14.00;1.00;;;;;;2247379;61;1248;-85
2021/03/24 06:33:28;239285.00;0.80;413.52;0.00;0.00;0.62;;;;;14.00;1.00;;;;;;2243525;61;1388;-85
2021/03/24 06:36:21;632642.00;2.11;1090.62;82052.00;0.27;142.58;;;;;14.30;1.00;;;;;;2243128;61;1549;-85
2021/03/24 06:39:24;583662.00;1.95;1006.02;95934.00;0.32;166.55;;;;;14.00;1.00;;;;;;2243582;61;1027;-85
2021/03/24 06:42:06;423735.00;1.41;730.61;79169.00;0.26;137.60;;;;;13.40;1.00;;;;;;2242627;61;2043;-85
2021/03/24 06:45:11;433604.00;1.45;747.58;79361.00;0.26;137.93;;;;;13.30;1.00;;;;;;2243227;61;1246;-85
2021/03/24 06:47:48;468914.00;1.56;808.32;8209.00;0.03;14.85;;;;;13.20;1.00;;;;;;2240198;61;1062;-85
2021/03/24 06:50:51;527747.00;1.76;909.61;78569.00;0.26;136.57;;;;;12.90;1.00;;;;;;2250485;61;1260;-85
2021/03/24 06:54:03;196865.00;0.66;340.53;0.00;0.00;0.62;;;;;13.10;1.00;;;;;;2260092;61;1443;-85
2021/03/24 06:57:17;283916.00;0.95;490.27;0.00;0.00;0.62;;;;;13.20;1.00;;;;;;2249520;61;1772;-85
2021/03/24 07:00:17;111804.00;0.37;193.94;0.00;0.00;0.62;;;;;13.70;1.00;;;;;;2259890;61;2015;-85
2021/03/24 07:03:29;220100.00;0.73;380.52;0.00;0.00;0.62;;;;;14.50;1.00;;;;;;2260057;61;1531;-85
2021/03/24 07:06:14;107907.00;0.36;187.22;0.00;0.00;0.62;;;;;15.20;1.00;;;;;;2259695;61;1669;-85
2021/03/24 07:08:50;145825.00;0.49;252.61;0.00;0.00;0.62;;;;;15.80;1.00;;;;;;2255858;61;1260;-85
2021/03/24 07:11:39;324747.00;1.08;560.46;0.00;0.00;0.62;;;;;16.10;1.00;;;;;;2255103;61;1375;-85
2021/03/24 07:14:36;347403.00;1.16;599.40;32648.00;0.11;57.17;;;;;16.20;1.00;;;;;;2251697;61;1267;-85
2021/03/24 07:17:35;225147.00;0.75;389.20;0.00;0.00;0.62;;;;;16.20;1.00;;;;;;2255417;61;1130;-86
2021/03/24 07:20:41;98457.00;0.33;170.91;0.00;0.00;0.62;;;;;16.40;1.00;;;;;;2246384;61;1938;-86
2021/03/24 07:23:33;192143.00;0.64;332.40;0.00;0.00;0.62;;;;;17.00;1.00;;;;;;2246228;61;1492;-85
2021/03/24 07:26:05;91570.00;0.31;159.02;0.00;0.00;0.62;;;;;16.90;1.00;;;;;;2247349;61;1129;-85
2021/03/24 07:28:49;254942.00;0.85;440.45;0.00;0.00;0.62;;;;;16.30;1.00;;;;;;2247133;61;1145;-86
2021/03/24 07:31:43;92364.00;0.31;160.39;0.00;0.00;0.62;;;;;15.50;1.00;;;;;;2247134;61;1771;-86
2021/03/24 07:34:25;317162.00;1.06;547.42;0.00;0.00;0.62;;;;;15.90;1.00;;;;;;2247538;61;1603;-85
2021/03/24 07:37:21;216790.00;0.72;374.82;0.00;0.00;0.62;;;;;16.50;1.00;;;;;;2247534;61;1182;-86
2021/03/24 07:40:06;254340.00;0.85;439.42;0.00;0.00;0.62;;;;;16.70;1.00;;;;;;2247301;61;2021;-86
2021/03/24 07:43:07;275555.00;0.92;475.90;0.00;0.00;0.62;;;;;17.30;1.00;;;;;;2244139;61;2598;-86
2021/03/24 07:45:56;182828.00;0.61;316.36;0.00;0.00;0.62;;;;;17.00;1.00;;;;;;2244286;61;1340;-85
2021/03/24 07:48:56;252290.00;0.84;435.89;0.00;0.00;0.62;;;;;16.70;1.00;;;;;;2244110;61;1656;-86
2021/03/24 07:51:50;244220.00;0.81;422.01;41725.00;0.14;72.87;;;;;16.30;1.00;;;;;;2244824;61;1310;-85
2021/03/24 07:54:26;100877.00;0.34;175.09;0.00;0.00;0.62;;;;;15.30;1.00;;;;;;2243547;61;1194;-85
2021/03/24 07:56:59;106355.00;0.35;184.54;0.00;0.00;0.62;;;;;14.90;1.00;;;;;;2249704;61;1187;-85
2021/03/24 07:59:34;194070.00;0.65;335.72;0.00;0.00;0.62;;;;;15.40;1.00;;;;;;2255939;61;1681;-85
2021/03/24 08:02:33;64867.00;0.22;112.89;0.00;0.00;0.62;;;;;15.50;1.00;;;;;;2256239;61;1361;-85
2021/03/24 08:05:23;91723.00;0.31;159.28;0.00;0.00;0.62;;;;;15.00;1.00;;;;;;2256586;61;1555;-85
2021/03/24 08:08:02;129291.00;0.43;224.11;0.00;0.00;0.62;;;;;15.60;1.00;;;;;;2243940;61;1286;-85
2021/03/24 08:10:36;72131.00;0.24;125.44;0.00;0.00;0.62;;;;;15.00;1.00;;;;;;2244239;61;1192;-85
2021/03/24 08:13:41;54469.00;0.18;94.91;0.00;0.00;0.62;;;;;14.90;1.00;;;;;;2237405;61;1380;-85
2021/03/24 08:16:34;39380.00;0.13;68.82;0.00;0.00;0.62;;;;;15.10;1.00;;;;;;2236048;62;1190;-85
2021/03/24 08:19:21;115165.00;0.38;199.74;0.00;0.00;0.62;;;;;15.40;1.00;;;;;;2243865;61;1247;-86
2021/03/24 08:22:03;95884.00;0.32;166.47;0.00;0.00;0.62;;;;;15.00;1.00;;;;;;2243821;61;1952;-86
2021/03/24 08:24:49;113561.00;0.38;196.97;0.00;0.00;0.62;;;;;14.80;1.00;;;;;;2243989;61;1154;-85
2021/03/24 08:27:22;104204.00;0.35;180.83;0.00;0.00;0.62;;;;;14.30;1.00;;;;;;2246168;61;1112;-85
2021/03/24 08:30:01;131557.00;0.44;228.01;0.00;0.00;0.62;;;;;14.60;1.00;;;;;;2244565;61;1585;-85
2021/03/24 08:33:14;193341.00;0.64;334.46;0.00;0.00;0.62;;;;;14.30;1.00;;;;;;2244248;61;1394;-85
2021/03/24 08:36:05;100072.00;0.33;173.70;0.00;0.00;0.62;;;;;14.40;1.00;;;;;;2244073;61;1096;-86
2021/03/24 08:39:14;416704.00;1.39;718.52;42470.00;0.14;74.16;;;;;13.90;1.00;;;;;;2244876;61;1723;-85
2021/03/24 08:42:24;131376.00;0.44;227.70;0.00;0.00;0.62;;;;;13.00;1.00;;;;;;2252139;61;2031;-85
2021/03/24 08:44:56;497211.00;1.66;857.02;110645.00;0.37;191.94;;;;;13.40;1.00;;;;;;2257099;61;1718;-85
2021/03/24 08:47:26;299522.00;1.00;517.10;0.00;0.00;0.62;;;;;13.50;1.00;;;;;;2264063;61;1743;-86
2021/03/24 08:49:56;273745.00;0.91;472.78;0.00;0.00;0.62;;;;;13.80;1.00;;;;;;2261870;61;1666;-85
2021/03/24 08:52:35;86504.00;0.29;150.27;0.00;0.00;0.62;;;;;13.90;1.00;;;;;;2261239;61;1393;-85
2021/03/24 08:55:28;95014.00;0.32;164.96;0.00;0.00;0.62;;;;;13.70;1.00;;;;;;2260056;61;1206;-84
2021/03/24 08:58:15;296545.00;0.99;511.98;0.00;0.00;0.62;;;;;14.30;1.00;;;;;;2260408;61;1600;-85
2021/03/24 09:00:56;468743.00;1.56;808.03;80938.00;0.27;140.66;;;;;13.90;1.00;;;;;;2260941;61;1951;-85
2021/03/24 09:03:52;509987.00;1.70;879.02;69265.00;0.23;120.49;;;;;13.90;1.00;;;;;;2261572;61;1101;-86
2021/03/24 09:06:30;486789.00;1.62;839.08;86854.00;0.29;150.88;;;;;13.50;1.00;;;;;;2260665;61;1133;-85
2021/03/24 09:09:13;309346.00;1.03;533.99;76293.00;0.25;132.63;;;;;12.90;1.00;;;;;;2256601;61;1241;-85
2021/03/24 09:11:51;389397.00;1.30;671.58;82354.00;0.27;143.10;;;;;13.00;1.00;;;;;;2256965;61;1465;-85
2021/03/24 09:14:27;97118.00;0.32;168.60;0.00;0.00;0.62;;;;;12.70;1.00;;;;;;2260435;61;1228;-85
2021/03/24 09:17:30;158552.00;0.53;274.54;0.00;0.00;0.62;;;;;12.80;1.00;;;;;;2256957;61;1094;-85
2021/03/24 09:20:42;437731.00;1.46;754.68;0.00;0.00;0.62;;;;;13.00;1.00;;;;;;2261033;61;1943;-85
2021/03/24 09:23:52;191168.00;0.64;330.72;0.00;0.00;0.62;;;;;12.30;1.00;;;;;;2260491;61;1380;-85
2021/03/24 09:27:06;169847.00;0.57;294.00;0.00;0.00;0.62;;;;;12.50;1.00;;;;;;2260621;61;1233;-86
2021/03/24 09:29:44;292115.00;0.97;504.37;0.00;0.00;0.62;;;;;13.10;1.00;;;;;;2260391;61;1057;-86
2021/03/24 09:32:24;297996.00;0.99;514.48;0.00;0.00;0.62;;;;;13.20;1.00;;;;;;2260195;61;1431;-86
2021/03/24 09:35:11;346990.00;1.16;598.69;20386.00;0.07;35.94;;;;;13.20;1.00;;;;;;2260075;61;1125;-86
2021/03/24 09:37:43;369559.00;1.23;637.48;0.00;0.00;0.62;;;;;13.40;1.00;;;;;;2260184;61;1686;-86
2021/03/24 09:40:23;502295.00;1.67;865.78;61315.00;0.20;106.75;;;;;13.30;1.00;;;;;;2259799;61;2018;-86
2021/03/24 09:42:54;410441.00;1.37;707.76;0.00;0.00;0.62;;;;;13.00;1.00;;;;;;2250766;61;1474;-86
2021/03/24 09:45:26;531609.00;1.77;916.26;0.00;0.00;0.62;;;;;13.20;1.00;;;;;;2251136;61;1130;-86
2021/03/24 09:48:02;507261.00;1.69;874.33;34547.00;0.12;60.45;;;;;13.30;1.00;;;;;;2247414;61;1161;-86
2021/03/24 09:50:35;482179.00;1.61;831.15;0.00;0.00;0.62;;;;;12.90;1.00;;;;;;2250897;61;1247;-86
2021/03/24 09:53:06;613066.00;2.04;1056.79;0.00;0.00;0.62;;;;;13.00;1.00;;;;;;2250603;61;1647;-86
2021/03/24 09:55:35;830241.00;2.77;1433.92;25314.00;0.08;44.47;;;;;13.00;1.00;;;;;;2250202;61;1184;-86
2021/03/24 09:58:38;649020.00;2.16;1118.94;18705.00;0.06;33.03;;;;;12.40;1.00;;;;;;2251068;61;1235;-86
2021/03/24 10:01:51;638338.00;2.13;1100.46;0.00;0.00;0.62;;;;;12.30;1.00;;;;;;2255614;61;1946;-85
2021/03/24 10:04:41;331144.00;1.10;571.45;0.00;0.00;0.62;;;;;12.80;1.00;;;;;;2252684;61;1206;-86
2021/03/24 10:07:16;368966.00;1.23;636.46;0.00;0.00;0.62;;;;;12.70;1.00;;;;;;2260659;61;1973;-86
2021/03/24 10:09:54;441337.00;1.47;760.88;29013.00;0.10;50.87;;;;;12.70;1.00;;;;;;2260529;61;1184;-86
2021/03/24 10:12:32;315011.00;1.05;543.72;0.00;0.00;0.62;;;;;13.20;1.00;;;;;;2260252;61;1752;-86
2021/03/24 10:15:21;495258.00;1.65;853.66;0.00;0.00;0.62;;;;;13.60;1.00;;;;;;2260747;61;1101;-85
2021/03/24 10:17:54;252335.00;0.84;435.97;0.00;0.00;0.62;;;;;13.70;1.00;;;;;;2260927;61;1160;-86
2021/03/24 10:20:26;186840.00;0.62;323.27;0.00;0.00;0.62;;;;;14.00;1.00;;;;;;2261055;61;1989;-86
2021/03/24 10:22:58;261768.00;0.87;452.19;0.00;0.00;0.62;;;;;14.00;1.00;;;;;;2255857;61;1464;-86
2021/03/24 10:25:33;187461.00;0.62;324.34;37333.00;0.12;65.27;;;;;13.70;1.00;;;;;;2256004;61;1070;-86
2021/03/24 10:28:06;119312.00;0.40;206.90;0.00;0.00;0.62;;;;;13.80;1.00;;;;;;2256021;61;1228;-85
2021/03/24 10:30:39;66034.00;0.22;114.91;0.00;0.00;0.62;;;;;13.90;1.00;;;;;;2255836;61;1617;-86
2021/03/24 10:33:16;376429.00;1.25;649.29;0.00;0.00;0.62;;;;;13.80;1.00;;;;;;2255814;61;1344;-86
2021/03/24 10:35:46;160341.00;0.53;277.63;0.00;0.00;0.62;;;;;13.90;1.00;;;;;;2252219;61;1245;-86
2021/03/24 10:38:26;217758.00;0.73;376.49;0.00;0.00;0.62;;;;;14.10;1.00;;;;;;2255283;61;1465;-86